Lihue Airport Lihue US
ICAO: PHLI
IATA:
Category: Medium
Scheduled Services:

Elevation: 153 ft
TransAlt. 18000 ft.

Airport Communications:
ATIS:127.2
HONOLULU CNTR:126.5
CTAF:118.9
GND:121.9
HONOLULU:122.6
TWR:118.9

PHLI Zoom In..

Runways:

(A) RW 03 length 6500 ft width 150 ft
---- / hdg 34

(B) RW 17 length 6500 ft width 150 ft
---- / hdg 169

(C) RW 21 length 6500 ft width 150 ft
---- / hdg 214

(D) RW 35 length 6500 ft width 150 ft
ILS 110.90 / hdg 349

Location; PHLI
Day. 19 / Time. 03.25 Zulu
* Altimeter: 30.03
* Temperature: 26° c. 78.8°f.
* Wind from: 070° Speed 15 kn.
Dewpoint: 24° c.
Visibility: 5 Statute Miles.
Clouds: Few 900 ft.
Clouds: Broken 1500 ft.
Clouds: Overcast 2300 ft.
Conditions: Light Rain.Conditions: Mist.

PHLI 190325Z 07015KT 5SM -RA BR FEW009 BKN015 OVC023 26/24 A3003 RMK AO2 RAB15 P0000 T02560244


Wind From 070°
Speed 15 kn.

 
 
jpsmedia.com for Web Design worldairports.se 2018   terms of use